world map with BJY marked

BJY - Airport

This information may not be accurate or current and is not valid for navigation or flight planning. No warranty of fitness for any purpose is made or implied.

flag of Serbia

Donate via PayPal

Additional information is available on the NEW Great Circle Mapper

Location
City:  Batajnica, Serbia
Near (Alt.):Nova Pazova
Name:Batajnia AB
ICAO / IATA:LYBT / BJY

Details
Type:Airport (Aerodrome, Airfield)
Use:Military
Latitude:44°56'07"N (44.935331)
Longitude:20°15'27"E (20.257506)
Datum:WGS 1984
Elevation:265 ft (81 m)
Runways:3
Longest:8181 × 148 ft (2494 × 45 m)

Time
Timezone:UTC+1 (DST+4)
Local Time:

Weather
METAR:LYBT  161730Z 00000KT 8000 NSC 01/M03 Q1017 NOSIG
TAF:LYBT  161700Z 1618/1718 16005KT CAVOK TX09/1713Z TNM02/1705Z TEMPO 1701/1706 1500 BR

Related Locations
Nearby:
Farthest:CHT: 11610 mi / 18685 km
Waitangi [Tuuta], CIT, NZ

Find:

   beyond  
but within

Other Information
Maps:
Sources:

  


 


Great Circle Mapper   Great Circle Mapper
Great Circle Mapper FAQ   Great Circle Mapper FAQ
  Karl's Home Page
KLSē   KLSē Home
   GC on Facebook
Airlines of the World   Airlines of the World
Donate via PayPal


Copyright © 2004-2019, Karl L. Swartz. All rights reserved.
All trademarks mentioned herein belong to their respective owners.

Please see credits for attribution and copyright information.

Karl Swartz <karl@kls2.com>
  Powered by FreeBSD
Valid HTML 4.01!
Labeled with ICRA
hCard Microformat
Geo Microformat